logo meteoveneto

Diretta Meteo Mondovi, Italiasabato 20 aprile ore 08:55

Mappa
Sereno 10 °C Sereno 24 Ore: T.min 9 T.max 20
Ponente Sud-Ovest Km/h 25.9 Punto di rugiada: 0 °C Umidità: 49% Visibilità: 0 Km
Il sole sorge alle: 06:34 Il sole tramonta alle: 20:21
20 Aprile 2024 08:55 tempo osservato: Sereno Sereno 10 49 1010 vento: Nord SO 25.9
20 Aprile 2024 07:55 tempo osservato: Sereno Sereno 10 53 1009 vento: Nord SO 29.6
20 Aprile 2024 06:55 tempo osservato: Sereno Sereno 10 53 1009 vento: Nord SO 29.6
20 Aprile 2024 05:55 tempo osservato: Sereno Sereno 10 49 1008 vento: Nord SO 29.6
20 Aprile 2024 04:55 tempo osservato: Sereno Sereno 11 43 1007 vento: Nord O/SO 27.8
20 Aprile 2024 03:55 tempo osservato: Sereno Sereno 11 46 1008 vento: Nord O/SO 24
20 Aprile 2024 02:55 tempo osservato: Sereno Sereno 10 49 1008 vento: Nord O 16.7
20 Aprile 2024 01:55 tempo osservato: Sereno Sereno 9 57 1009 vento: Nord O/SO 24
20 Aprile 2024 00:55 tempo osservato: Sereno Sereno 11 46 1009 vento: Nord O/SO 22.2
19 Aprile 2024 23:55 tempo osservato: Sereno Sereno 12 43 1008 vento: Nord O/SO 22.2
19 Aprile 2024 22:55 tempo osservato: Sereno Sereno 13 35 1008 vento: Nord O/SO 27.8
19 Aprile 2024 21:55 tempo osservato: Sereno Sereno 14 35 1009 vento: Nord O/SO 25.9
19 Aprile 2024 20:55 tempo osservato: Sereno Sereno 14 38 1009 vento: Nord O/SO 24
19 Aprile 2024 19:55 tempo osservato: Sereno Sereno 18 31 1009 vento: Nord O/SO 25.9
19 Aprile 2024 18:55 tempo osservato: Sereno Sereno 20 28 1009 vento: Nord O/SO 25.9
19 Aprile 2024 17:55 tempo osservato: Sereno Sereno 20 26 1010 vento: Nord O/SO 25.9
19 Aprile 2024 16:55 tempo osservato: Sereno Sereno 19 24 1010 vento: Nord O/SO 27.8
19 Aprile 2024 15:55 tempo osservato: Sereno Sereno 17 21 1011 vento: Nord SO 27.8
19 Aprile 2024 14:55 tempo osservato: Sereno Sereno 17 20 1012 vento: Nord SO 27.8
19 Aprile 2024 13:55 tempo osservato: Sereno Sereno 18 20 1013 vento: Nord SO 27.8
19 Aprile 2024 12:55 tempo osservato: Sereno Sereno 18 16 1014 vento: Nord SO 27.8
19 Aprile 2024 11:55 tempo osservato: Sereno Sereno 16 31 1015 vento: Nord SO 18.5
19 Aprile 2024 10:55 tempo osservato: Sereno Sereno 14 35 1016 vento: Nord SO 13
19 Aprile 2024 09:55 tempo osservato: Sereno Sereno 11 53 1016 vento: Nord SO 7.4